Time;durP1;ratioP1;P1;durP2;ratioP2;P2;SDS_P1;SDS_P2;PMS_P1;PMS_P2;Temp;Humidity;BMP_temperature;BMP_pressure;BME280_temperature;BME280_humidity;BME280_pressure;Samples;Min_cycle;Max_cycle;Signal;HPM_P1;HPM_P2
2023/09/02 00:00:37;;;;;;;9.30;6.60;;;;;;;17.93;75.78;100853.25;107382;1261;61750;-82
2023/09/02 00:03:05;;;;;;;7.20;6.50;;;;;;;17.93;75.97;100846.83;107436;1260;61171;-80
2023/09/02 00:05:32;;;;;;;9.20;7.00;;;;;;;17.95;76.20;100848.87;107265;1259;75180;-81
2023/09/02 00:08:00;;;;;;;8.30;7.50;;;;;;;17.97;76.16;100857.80;107441;1260;72560;-79
2023/09/02 00:10:27;;;;;;;8.10;7.30;;;;;;;17.99;76.26;100856.73;107386;1260;74777;-79
2023/09/02 00:12:55;;;;;;;8.10;6.50;;;;;;;18.00;76.32;100850.14;107268;1260;61691;-79
2023/09/02 00:15:22;;;;;;;8.70;7.10;;;;;;;17.92;76.52;100850.49;107349;1261;60432;-79
2023/09/02 00:17:50;;;;;;;8.50;6.60;;;;;;;17.97;76.56;100849.76;107563;1260;73445;-79
2023/09/02 00:20:18;;;;;;;10.00;6.80;;;;;;;17.98;76.34;100852.45;107411;1260;71789;-79
2023/09/02 00:22:46;;;;;;;8.20;6.80;;;;;;;17.99;76.07;100855.18;107252;1262;71045;-79
2023/09/02 00:25:13;;;;;;;7.40;6.20;;;;;;;17.99;76.15;100858.67;107326;1265;61105;-78
2023/09/02 00:27:41;;;;;;;8.80;6.30;;;;;;;17.99;76.00;100860.14;107505;1260;61120;-79
2023/09/02 00:30:09;;;;;;;9.10;6.30;;;;;;;17.97;75.97;100860.29;107366;1261;73909;-78
2023/09/02 00:32:36;;;;;;;7.50;6.30;;;;;;;17.90;76.00;100855.40;107545;1262;72680;-79
2023/09/02 00:35:04;;;;;;;9.30;6.20;;;;;;;17.81;76.10;100856.05;107506;1260;73653;-80
2023/09/02 00:37:32;;;;;;;8.60;5.70;;;;;;;17.83;75.95;100851.58;107558;1262;63056;-79
2023/09/02 00:40:00;;;;;;;8.10;6.40;;;;;;;17.79;75.94;100856.83;107325;1259;61318;-78
2023/09/02 00:42:28;;;;;;;7.10;5.70;;;;;;;17.68;76.08;100864.58;107492;1260;74672;-79
2023/09/02 00:44:55;;;;;;;7.50;6.00;;;;;;;17.59;75.96;100868.71;107697;1260;71718;-80
2023/09/02 00:47:23;;;;;;;6.60;5.50;;;;;;;17.54;75.87;100870.80;107488;1262;70551;-79
2023/09/02 00:49:51;;;;;;;7.10;5.70;;;;;;;17.50;75.86;100869.24;107389;1262;60513;-79
2023/09/02 00:52:18;;;;;;;7.80;5.60;;;;;;;17.46;75.83;100867.22;107535;1260;60995;-79
2023/09/02 00:54:46;;;;;;;5.90;5.10;;;;;;;17.40;75.89;100868.71;107347;1261;73469;-79
2023/09/02 00:57:13;;;;;;;6.50;4.80;;;;;;;17.34;75.84;100870.53;107414;1260;72736;-79
2023/09/02 00:59:41;;;;;;;7.60;6.10;;;;;;;17.30;75.82;100870.92;107488;1262;72706;-81
2023/09/02 01:02:10;;;;;;;5.90;5.30;;;;;;;17.34;75.66;100871.61;107498;1262;61704;-79
2023/09/02 01:04:37;;;;;;;7.00;4.70;;;;;;;17.26;75.78;100866.18;107453;1261;61144;-79
2023/09/02 01:07:05;;;;;;;5.60;4.50;;;;;;;17.22;76.02;100864.89;107435;1262;74703;-80
2023/09/02 01:09:33;;;;;;;5.20;3.70;;;;;;;17.17;75.89;100864.34;107411;1260;71290;-80
2023/09/02 01:12:00;;;;;;;7.90;5.00;;;;;;;17.10;76.05;100866.16;107304;1261;71497;-80
2023/09/02 01:14:28;;;;;;;5.40;4.10;;;;;;;17.01;76.03;100863.31;107376;1259;62067;-79
2023/09/02 01:16:56;;;;;;;6.70;3.80;;;;;;;16.90;76.16;100864.30;107455;1260;61143;-79
2023/09/02 01:19:23;;;;;;;5.10;4.20;;;;;;;16.82;76.36;100866.56;107414;1260;73434;-81
2023/09/02 01:22:12;;;;;;;6.30;4.90;;;;;;;16.74;76.50;100867.84;107670;1260;73184;-80
2023/09/02 01:25:01;;;;;;;7.00;5.40;;;;;;;16.66;76.68;100873.06;107366;1266;72521;-79
2023/09/02 01:27:34;;;;;;;6.80;5.10;;;;;;;16.57;76.80;100875.70;107468;1260;61771;-81
2023/09/02 01:30:23;;;;;;;6.70;5.20;;;;;;;16.50;76.99;100883.83;107516;1262;61156;-82
2023/09/02 01:32:52;;;;;;;6.40;4.80;;;;;;;16.50;77.17;100881.84;107495;1260;74683;-81
2023/09/02 01:35:27;;;;;;;5.10;3.80;;;;;;;16.52;77.25;100883.58;107597;1261;73275;-82
2023/09/02 01:37:56;;;;;;;4.80;3.80;;;;;;;16.54;77.17;100890.56;107923;1260;71436;-82
2023/09/02 01:40:25;;;;;;;4.90;3.90;;;;;;;16.53;77.07;100886.96;107471;1262;61814;-81
2023/09/02 01:42:57;;;;;;;5.50;4.00;;;;;;;16.51;77.11;100889.73;107725;1260;61265;-84
2023/09/02 01:45:27;;;;;;;4.80;3.90;;;;;;;16.52;77.01;100886.92;107435;1260;73534;-80
2023/09/02 01:47:55;;;;;;;5.10;3.70;;;;;;;16.50;76.89;100885.70;107469;1259;71584;-80
2023/09/02 01:50:25;;;;;;;5.40;3.90;;;;;;;16.49;76.78;100892.48;107281;1261;72675;-80
2023/09/02 01:52:53;;;;;;;5.10;3.60;;;;;;;16.46;76.78;100898.22;107304;1262;61042;-80
2023/09/02 01:55:21;;;;;;;4.60;3.90;;;;;;;16.40;76.78;100900.40;107509;1262;61173;-82
2023/09/02 01:57:49;;;;;;;5.70;3.50;;;;;;;16.38;76.76;100895.07;107509;1262;74750;-81
2023/09/02 02:00:17;;;;;;;4.70;3.40;;;;;;;16.36;76.77;100895.42;107406;1260;72730;-79
2023/09/02 02:02:45;;;;;;;5.00;3.50;;;;;;;16.35;76.67;100894.14;107326;1266;72509;-82
2023/09/02 02:05:16;;;;;;;4.70;3.70;;;;;;;16.34;76.70;100895.92;107538;1263;61160;-79
2023/09/02 02:07:47;;;;;;;4.90;3.60;;;;;;;16.31;76.75;100897.05;107322;1261;61173;-78
2023/09/02 02:10:16;;;;;;;6.90;4.20;;;;;;;16.27;76.76;100895.95;107387;1261;73009;-79
2023/09/02 02:12:43;;;;;;;6.50;4.80;;;;;;;16.26;76.90;100894.84;107516;1260;71717;-78
2023/09/02 02:15:11;;;;;;;8.20;5.50;;;;;;;16.22;76.79;100891.38;107400;1262;71091;-79
2023/09/02 02:17:39;;;;;;;9.20;6.40;;;;;;;16.21;76.96;100891.02;107557;1262;61710;-78
2023/09/02 02:20:11;;;;;;;6.40;5.60;;;;;;;16.18;77.01;100889.35;107625;1262;60561;-81
2023/09/02 02:22:38;;;;;;;6.40;5.10;;;;;;;16.17;77.05;100889.27;107403;1262;74699;-81
2023/09/02 02:25:06;;;;;;;7.90;6.10;;;;;;;16.15;77.06;100893.23;107451;1260;73321;-79
2023/09/02 02:27:34;;;;;;;8.10;6.20;;;;;;;16.12;77.11;100906.04;107420;1260;72595;-80
2023/09/02 02:30:03;;;;;;;7.90;6.30;;;;;;;16.08;77.03;100906.99;107451;1259;60483;-78
2023/09/02 02:32:31;;;;;;;9.90;7.00;;;;;;;16.02;77.07;100908.49;107320;1259;61133;-78
2023/09/02 02:34:58;;;;;;;9.20;7.50;;;;;;;15.97;77.17;100912.70;107507;1260;74703;-77
2023/09/02 02:37:26;;;;;;;7.90;6.80;;;;;;;15.92;77.22;100917.55;107527;1261;72752;-80
2023/09/02 02:39:53;;;;;;;8.40;7.50;;;;;;;15.86;77.26;100919.69;107557;1260;73613;-80
2023/09/02 02:42:22;;;;;;;8.20;7.30;;;;;;;15.83;77.32;100920.22;107569;1262;233395;-80
2023/09/02 02:44:50;;;;;;;8.30;7.20;;;;;;;15.80;77.44;100919.38;107529;1265;61209;-81
2023/09/02 02:47:17;;;;;;;9.40;7.40;;;;;;;15.79;77.40;100916.09;107447;1262;73381;-81
2023/09/02 02:49:45;;;;;;;9.30;7.50;;;;;;;15.80;77.47;100916.64;107460;1260;71537;-79
2023/09/02 02:52:14;;;;;;;9.80;7.20;;;;;;;15.83;77.45;100916.45;107499;1263;72513;-80
2023/09/02 02:54:41;;;;;;;10.00;7.90;;;;;;;15.87;77.41;100918.93;107431;1261;61123;-80
2023/09/02 02:57:09;;;;;;;10.30;6.90;;;;;;;15.91;77.38;100924.98;107458;1261;61237;-80
2023/09/02 02:59:37;;;;;;;8.50;7.20;;;;;;;15.95;77.28;100923.93;107417;1259;74710;-79
2023/09/02 03:02:04;;;;;;;8.70;7.20;;;;;;;15.97;77.21;100923.00;107338;1259;72776;-80
2023/09/02 03:04:32;;;;;;;9.10;7.90;;;;;;;15.97;77.01;100920.40;107380;1260;72706;-79
2023/09/02 03:06:59;;;;;;;8.50;6.80;;;;;;;15.96;76.93;100922.63;107365;1262;60460;-79
2023/09/02 03:09:27;;;;;;;6.50;5.60;;;;;;;15.92;76.79;100922.83;107581;1261;60354;-80
2023/09/02 03:11:55;;;;;;;7.20;5.00;;;;;;;15.82;76.70;100925.77;107460;1261;74656;-79
2023/09/02 03:14:23;;;;;;;4.80;4.10;;;;;;;15.71;76.62;100927.10;107505;1261;72728;-79
2023/09/02 03:16:51;;;;;;;5.50;4.30;;;;;;;15.64;76.81;100927.23;107626;1259;72683;-79
2023/09/02 03:19:20;;;;;;;4.80;4.10;;;;;;;15.61;76.93;100926.13;107372;1262;61105;-78
2023/09/02 03:21:47;;;;;;;5.00;3.90;;;;;;;15.63;76.99;100928.42;107453;1261;61083;-80
2023/09/02 03:24:16;;;;;;;5.10;3.80;;;;;;;15.67;77.06;100927.50;107483;1262;74833;-79
2023/09/02 03:26:44;;;;;;;4.50;3.50;;;;;;;15.72;77.06;100926.49;107509;1260;72826;-79
2023/09/02 03:29:12;;;;;;;6.40;3.60;;;;;;;15.77;76.96;100926.04;107516;1262;70652;-78
2023/09/02 03:31:40;;;;;;;4.10;3.30;;;;;;;15.80;76.86;100928.43;107585;1265;61135;-79
2023/09/02 03:34:08;;;;;;;5.40;3.80;;;;;;;15.84;76.86;100928.35;107652;1262;61185;-79
2023/09/02 03:36:35;;;;;;;4.20;3.40;;;;;;;15.87;76.82;100929.94;107441;1262;73408;-81
2023/09/02 03:39:04;;;;;;;4.90;3.60;;;;;;;15.91;76.74;100933.55;107442;1262;72166;-81
2023/09/02 03:41:34;;;;;;;6.70;3.90;;;;;;;15.94;76.71;100931.85;107468;1259;71256;-81
2023/09/02 03:44:01;;;;;;;6.10;3.90;;;;;;;15.99;76.67;100934.52;107521;1259;61754;-80
2023/09/02 03:46:29;;;;;;;4.80;4.00;;;;;;;16.01;76.48;100935.06;107462;1261;61254;-81
2023/09/02 03:49:00;;;;;;;4.80;3.90;;;;;;;15.98;76.31;100935.59;107448;1259;73778;-80
2023/09/02 03:51:28;;;;;;;6.40;4.20;;;;;;;15.96;76.21;100939.33;107649;1259;71457;-80
2023/09/02 03:53:58;;;;;;;5.80;4.20;;;;;;;15.98;76.38;100945.62;107468;1262;72716;-80
2023/09/02 03:56:26;;;;;;;6.30;4.50;;;;;;;16.03;76.46;100947.72;107392;1263;61705;-80
2023/09/02 03:58:54;;;;;;;7.40;4.40;;;;;;;16.10;76.62;100955.42;107481;1259;62794;-79
2023/09/02 04:01:22;;;;;;;5.30;4.30;;;;;;;16.15;76.63;100953.52;107490;1261;74719;-78
2023/09/02 04:03:50;;;;;;;7.10;4.60;;;;;;;16.17;76.73;100955.89;107583;1262;72856;-79
2023/09/02 04:06:18;;;;;;;5.80;4.20;;;;;;;16.22;76.83;100955.80;107448;1262;72882;-77
2023/09/02 04:08:49;;;;;;;5.70;5.10;;;;;;;16.30;76.82;100958.25;107424;1262;63796;-80
2023/09/02 04:11:17;;;;;;;7.70;5.30;;;;;;;16.38;76.87;100964.26;107543;1262;62281;-78
2023/09/02 04:13:44;;;;;;;7.50;5.00;;;;;;;16.45;76.95;100965.58;107324;1262;74559;-77
2023/09/02 04:16:13;;;;;;;5.60;5.00;;;;;;;16.53;76.88;100965.60;107470;1259;72980;-77
2023/09/02 04:18:42;;;;;;;5.90;5.00;;;;;;;16.61;76.80;100967.34;107435;1262;72639;-77
2023/09/02 04:21:09;;;;;;;7.70;5.10;;;;;;;16.65;76.53;100965.56;107284;1262;61127;-77
2023/09/02 04:23:41;;;;;;;5.70;4.90;;;;;;;16.68;76.55;100969.90;107353;1259;61136;-77
2023/09/02 04:26:11;;;;;;;;;;;;;;;16.73;76.66;100972.83;107581;1259;73220;-78
2023/09/02 04:28:39;;;;;;;7.20;5.50;;;;;;;16.75;76.64;100975.77;107429;1262;72763;-79
2023/09/02 04:31:06;;;;;;;5.60;5.00;;;;;;;16.82;76.79;100980.23;107414;1262;71752;-78
2023/09/02 04:33:35;;;;;;;5.60;4.80;;;;;;;16.94;77.09;100980.30;107490;1262;61100;-79
2023/09/02 04:36:04;;;;;;;5.70;4.90;;;;;;;17.02;77.11;100980.38;107371;1260;62863;-77
2023/09/02 04:38:35;;;;;;;6.10;4.00;;;;;;;17.06;77.08;100982.86;107390;1259;73471;-79
2023/09/02 04:41:06;;;;;;;5.20;4.00;;;;;;;17.04;77.04;100982.16;107392;1262;72600;-79
2023/09/02 04:43:34;;;;;;;4.40;4.00;;;;;;;17.03;77.02;100982.30;107479;1259;71236;-79
2023/09/02 04:46:03;;;;;;;4.90;4.20;;;;;;;17.06;77.11;100985.77;107357;1262;61096;-78
2023/09/02 04:48:34;;;;;;;5.50;3.90;;;;;;;17.12;76.99;100987.97;107462;1261;59558;-79
2023/09/02 04:51:03;;;;;;;5.00;4.00;;;;;;;17.10;76.87;100989.17;107539;1260;73661;-81
2023/09/02 04:53:32;;;;;;;5.10;4.00;;;;;;;17.11;76.91;100990.89;107313;1260;72897;-81
2023/09/02 04:56:00;;;;;;;4.90;4.00;;;;;;;17.14;76.98;100993.11;107453;1261;73754;-82
2023/09/02 04:58:30;;;;;;;5.50;4.00;;;;;;;17.19;76.94;100990.73;107275;1261;61222;-81
2023/09/02 05:01:11;;;;;;;5.10;4.60;;;;;;;17.25;76.90;100994.16;107329;1261;60544;-81
2023/09/02 05:03:49;;;;;;;5.90;4.80;;;;;;;17.33;77.06;100998.91;107243;1259;72973;-80
2023/09/02 05:06:16;;;;;;;6.20;4.90;;;;;;;17.42;77.09;100998.08;107435;1263;72062;-80
2023/09/02 05:08:46;;;;;;;7.10;4.90;;;;;;;17.55;77.22;101002.65;107374;1261;72946;-80
2023/09/02 05:11:17;;;;;;;5.40;4.80;;;;;;;17.67;77.44;100996.20;107259;1262;61201;-79
2023/09/02 05:13:45;;;;;;;6.40;5.40;;;;;;;17.79;77.34;100993.83;107690;1261;60205;-81
2023/09/02 05:16:13;;;;;;;5.90;5.30;;;;;;;17.90;77.27;100993.65;107849;1263;73994;-81
2023/09/02 05:18:41;;;;;;;6.70;5.70;;;;;;;18.06;77.37;100994.36;107668;1261;70778;-79
2023/09/02 05:21:08;;;;;;;6.60;5.60;;;;;;;18.21;77.22;100994.32;107441;1262;72717;-80
2023/09/02 05:23:36;;;;;;;7.40;6.10;;;;;;;18.34;77.09;100992.42;107333;1262;61037;-80
2023/09/02 05:26:04;;;;;;;7.30;5.90;;;;;;;18.50;77.08;100993.84;107363;1260;61269;-81
2023/09/02 05:28:32;;;;;;;6.20;5.60;;;;;;;18.68;76.90;100989.06;107310;1262;74232;-80
2023/09/02 05:31:00;;;;;;;6.90;6.10;;;;;;;18.71;76.71;100991.17;107290;1259;72709;-81
2023/09/02 05:33:28;;;;;;;7.90;5.90;;;;;;;18.81;76.52;100991.02;107299;1260;72745;-81
2023/09/02 05:35:55;;;;;;;9.70;6.40;;;;;;;18.94;75.92;100988.77;107270;1260;61953;-82
2023/09/02 05:38:23;;;;;;;9.10;6.60;;;;;;;19.04;74.87;100988.75;107325;1265;61338;-81
2023/09/02 05:40:51;;;;;;;7.90;6.30;;;;;;;19.12;73.79;100988.41;107405;1261;74642;-81
2023/09/02 05:43:19;;;;;;;8.40;6.60;;;;;;;19.13;72.61;100985.94;107596;1262;70967;-81
2023/09/02 05:45:48;;;;;;;7.80;6.90;;;;;;;19.20;71.85;100988.23;107560;1262;72774;-82
2023/09/02 05:48:16;;;;;;;9.90;7.00;;;;;;;19.28;71.31;100985.86;107482;1262;61919;-81
2023/09/02 05:50:44;;;;;;;8.70;6.60;;;;;;;19.36;71.02;100983.98;107385;1259;61247;-81
2023/09/02 05:53:12;;;;;;;8.30;6.50;;;;;;;19.45;70.34;100977.76;107553;1261;73358;-81
2023/09/02 05:55:40;;;;;;;7.20;6.50;;;;;;;19.55;69.56;100978.84;107448;1259;71491;-82
2023/09/02 05:58:07;;;;;;;8.50;6.50;;;;;;;19.61;69.30;100977.02;107561;1261;72775;-81
2023/09/02 06:00:36;;;;;;;8.70;7.10;;;;;;;19.68;68.99;100976.02;107555;1260;61724;-80
2023/09/02 06:03:04;;;;;;;7.90;6.70;;;;;;;19.74;68.70;100977.02;107464;1262;61235;-79
2023/09/02 06:05:31;;;;;;;7.70;6.40;;;;;;;19.74;68.45;100975.80;107366;1261;73361;-79
2023/09/02 06:07:59;;;;;;;7.10;6.40;;;;;;;19.74;68.47;100972.45;107385;1262;72940;-79
2023/09/02 06:10:26;;;;;;;6.70;6.00;;;;;;;19.82;68.35;100974.11;107533;1260;73232;-81
2023/09/02 06:12:54;;;;;;;7.70;6.30;;;;;;;19.89;68.39;100976.16;107467;1259;61104;-79
2023/09/02 06:15:22;;;;;;;7.70;6.40;;;;;;;19.97;68.51;100980.52;107469;1262;60829;-80
2023/09/02 06:17:49;;;;;;;8.60;6.60;;;;;;;20.07;68.59;100979.81;107370;1260;73772;-80
2023/09/02 06:20:20;;;;;;;7.60;6.10;;;;;;;20.22;68.08;100984.52;107520;1259;71466;-81
2023/09/02 06:22:47;;;;;;;7.30;5.80;;;;;;;20.40;67.37;100985.31;107918;1259;72688;-81
2023/09/02 06:25:15;;;;;;;6.40;5.80;;;;;;;20.46;66.70;100983.58;107603;1260;61079;-81
2023/09/02 06:27:43;;;;;;;8.20;6.00;;;;;;;20.58;66.00;100987.86;107536;1261;59668;-81
2023/09/02 06:30:11;;;;;;;6.90;5.30;;;;;;;20.70;65.39;100987.55;107431;1259;74616;-81
2023/09/02 06:32:39;;;;;;;7.50;5.50;;;;;;;20.75;64.65;100982.95;107462;1260;70650;-81
2023/09/02 06:35:11;;;;;;;6.40;5.10;;;;;;;20.82;64.38;100983.17;107490;1260;71164;-82
2023/09/02 06:37:39;;;;;;;7.50;5.60;;;;;;;20.98;63.76;100979.86;107460;1260;61238;-82
2023/09/02 06:40:07;;;;;;;6.10;5.10;;;;;;;21.06;62.93;100982.29;107384;1260;61082;-81
2023/09/02 06:42:35;;;;;;;6.70;5.30;;;;;;;21.19;62.92;100984.11;107415;1263;74741;-80
2023/09/02 06:45:02;;;;;;;6.40;5.00;;;;;;;21.35;62.74;100987.90;107413;1261;72522;-82
2023/09/02 06:47:30;;;;;;;6.10;4.90;;;;;;;21.46;62.46;100988.54;107469;1263;72703;-83
2023/09/02 06:49:58;;;;;;;6.10;5.00;;;;;;;21.59;62.09;100988.51;107296;1260;61794;-82
2023/09/02 06:52:25;;;;;;;5.90;5.10;;;;;;;21.72;61.33;100994.77;107388;1262;61340;-82
2023/09/02 06:54:53;;;;;;;6.40;5.30;;;;;;;21.79;60.69;100993.97;107468;1259;73475;-80
2023/09/02 06:57:20;;;;;;;6.50;5.30;;;;;;;21.82;60.23;100994.89;107437;1261;73234;-79
2023/09/02 06:59:48;;;;;;;5.60;5.00;;;;;;;21.88;59.72;100989.46;107205;1261;71124;-80
2023/09/02 07:02:15;;;;;;;5.30;4.40;;;;;;;21.98;59.31;100988.55;107535;1259;61228;-80
2023/09/02 07:04:43;;;;;;;7.00;4.30;;;;;;;21.98;58.24;100987.89;107472;1261;61000;-80
2023/09/02 07:07:10;;;;;;;5.80;4.10;;;;;;;21.97;57.50;100986.05;107264;1260;72547;-81
2023/09/02 07:09:38;;;;;;;4.80;3.30;;;;;;;22.01;56.40;100989.89;107317;1259;72815;-81
2023/09/02 07:12:06;;;;;;;4.60;3.30;;;;;;;22.04;54.52;100996.82;107514;1265;73202;-80
2023/09/02 07:14:33;;;;;;;5.80;3.50;;;;;;;22.07;53.74;100993.38;107600;1261;61382;-80
2023/09/02 07:17:01;;;;;;;4.40;3.50;;;;;;;22.17;54.04;100995.23;107416;1259;61133;-81
2023/09/02 07:19:29;;;;;;;4.40;3.10;;;;;;;22.24;53.23;100995.85;107362;1259;74719;-82
2023/09/02 07:21:57;;;;;;;4.90;3.40;;;;;;;22.25;52.86;100998.37;107248;1260;71278;-82
2023/09/02 07:24:24;;;;;;;5.40;3.70;;;;;;;22.33;53.26;100998.95;107218;1265;71247;-82
2023/09/02 07:26:52;;;;;;;4.60;3.40;;;;;;;22.40;53.11;100996.11;107281;1262;61720;-78
2023/09/02 07:29:20;;;;;;;5.00;3.20;;;;;;;22.52;53.20;100995.30;107411;1260;60064;-79
2023/09/02 07:31:47;;;;;;;4.60;3.30;;;;;;;22.63;52.79;100995.17;107405;1261;73810;-80
2023/09/02 07:34:15;;;;;;;4.10;3.30;;;;;;;22.79;52.87;100990.91;107345;1265;73001;-79
2023/09/02 07:36:43;;;;;;;4.50;3.30;;;;;;;22.97;52.86;100991.11;107323;1264;71201;-79
2023/09/02 07:39:12;;;;;;;4.80;3.10;;;;;;;23.06;50.77;100995.20;107312;1261;60255;-79
2023/09/02 07:41:40;;;;;;;5.00;3.10;;;;;;;23.04;50.40;100993.62;107418;1265;61229;-81
2023/09/02 07:44:11;;;;;;;3.90;2.80;;;;;;;23.07;50.04;100995.14;107237;1259;74656;-78
2023/09/02 07:46:38;;;;;;;5.80;3.30;;;;;;;23.20;49.66;100994.69;107285;1262;72738;-77
2023/09/02 07:49:06;;;;;;;3.90;2.60;;;;;;;23.33;49.87;100993.73;107333;1262;71475;-78
2023/09/02 07:51:33;;;;;;;4.40;2.90;;;;;;;23.45;49.13;100988.48;107345;1260;61119;-80
2023/09/02 07:54:01;;;;;;;3.70;2.50;;;;;;;23.57;48.40;100993.76;107306;1267;61098;-79
2023/09/02 07:56:29;;;;;;;3.70;2.50;;;;;;;23.68;47.45;100992.83;107263;1261;74681;-79
2023/09/02 07:58:56;;;;;;;3.70;2.80;;;;;;;23.79;46.15;100991.60;107261;1261;72871;-79
2023/09/02 08:01:25;;;;;;;4.20;2.90;;;;;;;23.77;45.29;100990.27;107239;1261;72369;-83
2023/09/02 08:03:53;;;;;;;4.40;2.70;;;;;;;23.73;46.23;100989.35;107432;1260;61272;-80
2023/09/02 08:06:20;;;;;;;4.50;2.50;;;;;;;23.78;45.98;100992.98;107390;1261;61105;-77
2023/09/02 08:08:48;;;;;;;3.20;2.20;;;;;;;23.88;45.44;100992.92;107442;1265;75153;-81
2023/09/02 08:11:17;;;;;;;3.60;2.30;;;;;;;23.94;43.51;100994.21;107356;1260;72022;-80
2023/09/02 08:13:45;;;;;;;4.10;2.30;;;;;;;23.97;42.44;100995.50;107602;1261;71913;-80
2023/09/02 08:16:13;;;;;;;4.20;2.00;;;;;;;24.00;41.60;100996.15;107706;1263;59723;-80
2023/09/02 08:18:41;;;;;;;3.80;2.30;;;;;;;24.01;41.85;100997.05;107393;1260;62689;-79
2023/09/02 08:21:09;;;;;;;2.90;2.10;;;;;;;24.13;41.86;100993.02;107214;1265;73457;-81
2023/09/02 08:23:38;;;;;;;2.90;1.90;;;;;;;24.26;39.74;100994.38;107573;1261;71451;-81
2023/09/02 08:26:12;;;;;;;3.30;2.20;;;;;;;24.35;39.20;100993.27;107552;1262;73381;-81
2023/09/02 08:28:44;;;;;;;3.20;2.00;;;;;;;24.46;39.43;100999.27;107282;1261;63560;-80
2023/09/02 08:31:17;;;;;;;4.50;2.30;;;;;;;24.47;39.46;101001.58;107312;1263;61158;-81
2023/09/02 08:33:45;;;;;;;2.80;2.00;;;;;;;24.57;40.08;101000.89;107287;1264;74612;-82
2023/09/02 08:36:15;;;;;;;3.50;1.90;;;;;;;24.71;39.38;101001.48;107187;1262;72551;-80
2023/09/02 08:38:43;;;;;;;3.40;2.10;;;;;;;24.80;38.32;101002.34;108015;1261;72764;-78
2023/09/02 08:41:34;;;;;;;3.50;2.20;;;;;;;24.79;38.04;100999.40;107313;1260;61293;-82
2023/09/02 08:44:02;;;;;;;3.90;2.10;;;;;;;24.79;38.08;101002.54;107165;1265;62179;-81
2023/09/02 08:46:31;;;;;;;4.10;2.20;;;;;;;24.80;37.73;101005.98;107387;1265;74702;-80
2023/09/02 08:49:00;;;;;;;2.40;1.80;;;;;;;24.88;37.08;101002.48;107431;1260;72857;-79
2023/09/02 08:51:28;;;;;;;3.60;2.20;;;;;;;24.97;36.48;101004.41;107385;1260;72678;-81
2023/09/02 08:53:56;;;;;;;3.90;2.10;;;;;;;25.05;36.72;101004.42;107271;1261;61102;-80
2023/09/02 08:56:24;;;;;;;3.40;2.10;;;;;;;25.14;36.41;101004.94;107369;1260;61100;-80
2023/09/02 08:58:52;;;;;;;3.60;2.30;;;;;;;25.23;36.80;101008.18;107419;1260;73865;-80
2023/09/02 09:01:21;;;;;;;3.30;2.30;;;;;;;25.36;36.13;101009.42;107397;1261;72841;-80
2023/09/02 09:03:54;;;;;;;4.30;2.30;;;;;;;25.34;35.74;101007.73;107518;1262;73168;-80
2023/09/02 09:06:24;;;;;;;3.70;2.40;;;;;;;25.38;36.44;101008.23;107518;1262;61243;-80
2023/09/02 09:08:52;;;;;;;4.00;2.30;;;;;;;25.54;36.27;101008.52;107360;1262;61258;-79
2023/09/02 09:11:21;;;;;;;3.20;2.10;;;;;;;25.67;35.68;101005.54;107539;1261;73912;-79
2023/09/02 09:13:49;;;;;;;3.20;2.10;;;;;;;25.76;35.39;101004.05;107438;1260;72904;-82
2023/09/02 09:16:24;;;;;;;4.70;2.30;;;;;;;25.76;35.00;101001.24;107599;1261;72736;-81
2023/09/02 09:18:52;;;;;;;3.60;2.10;;;;;;;25.80;35.50;101001.05;107661;1260;61324;-80
2023/09/02 09:21:20;;;;;;;3.10;2.10;;;;;;;25.93;35.47;101001.52;107497;1261;61322;-82
2023/09/02 09:23:47;;;;;;;3.60;2.20;;;;;;;25.96;34.50;101002.75;107407;1261;73409;-81
2023/09/02 09:26:15;;;;;;;3.70;2.30;;;;;;;25.93;34.73;100994.17;107355;1260;71420;-81
2023/09/02 09:28:54;;;;;;;3.30;2.10;;;;;;;25.99;34.82;100998.69;107286;1260;71237;-80
2023/09/02 09:31:22;;;;;;;4.60;2.10;;;;;;;26.03;34.56;100996.38;107465;1262;61257;-79
2023/09/02 09:33:53;;;;;;;3.90;2.20;;;;;;;26.07;35.22;100995.45;107389;1260;60051;-79
2023/09/02 09:36:22;;;;;;;3.90;2.20;;;;;;;26.11;34.88;100994.38;107643;1260;73413;-78
2023/09/02 09:38:53;;;;;;;3.00;1.90;;;;;;;26.10;34.63;100994.13;108130;1266;72153;-79
2023/09/02 09:41:20;;;;;;;3.90;2.30;;;;;;;26.07;34.85;100994.98;107432;1266;72777;-78
2023/09/02 09:44:09;;;;;;;5.00;2.10;;;;;;;26.13;34.85;100991.02;107392;1261;61321;-79
2023/09/02 09:46:43;;;;;;;3.10;2.00;;;;;;;26.19;34.72;100992.80;107450;1260;61227;-80
2023/09/02 09:49:21;;;;;;;3.70;2.00;;;;;;;26.17;35.01;100993.39;107468;1261;73373;-79
2023/09/02 09:52:01;;;;;;;4.20;2.40;;;;;;;26.15;35.02;100995.05;107181;1260;71587;-80
2023/09/02 09:54:39;;;;;;;4.30;2.50;;;;;;;26.18;34.88;100996.36;107364;1264;64127;-79
2023/09/02 09:57:11;;;;;;;3.90;2.20;;;;;;;26.21;35.02;100996.83;107332;1260;61263;-79
2023/09/02 09:59:38;;;;;;;3.30;2.10;;;;;;;26.30;35.18;100996.67;107351;1260;61235;-80
2023/09/02 10:02:06;;;;;;;2.80;1.90;;;;;;;26.40;35.21;100994.11;107457;1260;74672;-78
2023/09/02 10:04:34;;;;;;;4.20;2.40;;;;;;;26.42;35.58;100989.25;107352;1261;73370;-79
2023/09/02 10:07:02;;;;;;;3.60;2.20;;;;;;;26.45;35.70;100987.81;107324;1264;72448;-79
2023/09/02 10:09:43;;;;;;;5.00;2.10;;;;;;;26.46;35.87;100989.25;107458;1261;61305;-80
2023/09/02 10:12:11;;;;;;;3.50;2.50;;;;;;;26.41;35.54;100992.48;107438;1260;59883;-81
2023/09/02 10:14:43;;;;;;;4.00;2.20;;;;;;;26.35;35.08;100992.89;107310;1261;75088;-80
2023/09/02 10:17:11;;;;;;;4.40;2.30;;;;;;;26.37;34.65;100990.35;107709;1260;72777;-80
2023/09/02 10:19:40;;;;;;;3.50;2.60;;;;;;;26.43;34.88;100991.66;107750;1261;71287;-78
2023/09/02 10:22:07;;;;;;;2.60;2.00;;;;;;;26.50;35.68;100989.05;107839;1264;61258;-79
2023/09/02 10:24:44;;;;;;;3.30;2.20;;;;;;;26.61;35.65;100988.75;107308;1260;61242;-81
2023/09/02 10:27:16;;;;;;;4.00;2.50;;;;;;;26.80;34.68;100989.36;107461;1260;74730;-80
2023/09/02 10:29:44;;;;;;;3.00;2.10;;;;;;;26.96;34.10;100986.20;107314;1261;63901;-85
2023/09/02 10:32:15;;;;;;;3.70;2.30;;;;;;;27.00;33.04;100986.53;107471;1265;62473;-80
2023/09/02 10:34:47;;;;;;;3.70;2.20;;;;;;;26.84;32.53;100983.66;107448;1261;61340;-80
2023/09/02 10:37:15;;;;;;;4.40;2.60;;;;;;;26.66;32.96;100981.45;107419;1261;60053;-79
2023/09/02 10:39:53;;;;;;;3.80;2.30;;;;;;;26.59;33.39;100982.61;107342;1260;74773;-79
2023/09/02 10:42:21;;;;;;;2.90;1.90;;;;;;;26.59;33.33;100977.69;107195;1260;72780;-80
2023/09/02 10:44:48;;;;;;;3.50;2.10;;;;;;;26.60;33.68;100979.44;107287;1261;72505;-80
2023/09/02 10:47:16;;;;;;;3.10;2.00;;;;;;;26.64;33.91;100972.80;107308;1260;61128;-82
2023/09/02 10:49:43;;;;;;;4.90;2.50;;;;;;;26.71;33.88;100973.27;107533;1266;61006;-78
2023/09/02 10:52:11;;;;;;;3.60;2.20;;;;;;;26.81;32.97;100973.89;107625;1260;75606;-79
2023/09/02 10:55:01;;;;;;;3.10;2.00;;;;;;;26.91;32.77;100975.13;107340;1260;72729;-80
2023/09/02 10:57:29;;;;;;;3.50;2.30;;;;;;;26.89;32.36;100974.44;107302;1263;63881;-78
2023/09/02 11:00:16;;;;;;;4.00;2.20;;;;;;;26.75;32.68;100973.34;107319;1260;61240;-79
2023/09/02 11:02:45;;;;;;;2.90;1.70;;;;;;;26.70;32.75;100970.90;107359;1261;61376;-78
2023/09/02 11:05:13;;;;;;;3.20;1.80;;;;;;;26.70;32.29;100970.11;107335;1265;74296;-78
2023/09/02 11:07:41;;;;;;;4.00;1.90;;;;;;;26.73;31.92;100970.70;107407;1260;72768;-79
2023/09/02 11:10:09;;;;;;;3.10;2.10;;;;;;;26.88;32.22;100973.25;107547;1265;71248;-78
2023/09/02 11:13:01;;;;;;;3.10;2.00;;;;;;;27.13;31.91;100968.47;107649;1264;61942;-80
2023/09/02 11:15:29;;;;;;;3.50;2.00;;;;;;;27.36;31.39;100964.95;107462;1260;61270;-80
2023/09/02 11:17:57;;;;;;;3.20;2.30;;;;;;;27.52;30.59;100963.16;107478;1260;75278;-80
2023/09/02 11:20:28;;;;;;;3.40;2.20;;;;;;;27.62;30.72;100962.19;107390;1266;72777;-77
2023/09/02 11:23:01;;;;;;;5.60;2.20;;;;;;;27.76;30.10;100956.59;107380;1260;71444;-79
2023/09/02 11:25:41;;;;;;;3.20;2.00;;;;;;;27.87;29.42;100957.66;107228;1263;61206;-78